sensor_id;sensor_type;location;lat;lon;timestamp;temperature;humidity
31074;DHT22;17730;53.552;9.940;2023-02-04T00:01:46;4.40;99.90
31074;DHT22;17730;53.552;9.940;2023-02-04T00:04:11;4.50;99.90
31074;DHT22;17730;53.552;9.940;2023-02-04T00:06:37;4.50;99.90
31074;DHT22;17730;53.552;9.940;2023-02-04T00:09:02;4.50;99.90
31074;DHT22;17730;53.552;9.940;2023-02-04T00:11:28;4.50;99.90
31074;DHT22;17730;53.552;9.940;2023-02-04T00:13:53;4.60;99.90
31074;DHT22;17730;53.552;9.940;2023-02-04T00:16:19;4.60;99.90
31074;DHT22;17730;53.552;9.940;2023-02-04T00:18:44;4.60;99.90
31074;DHT22;17730;53.552;9.940;2023-02-04T00:21:09;4.70;99.90
31074;DHT22;17730;53.552;9.940;2023-02-04T00:23:35;4.70;99.90
31074;DHT22;17730;53.552;9.940;2023-02-04T00:26:00;4.70;99.90
31074;DHT22;17730;53.552;9.940;2023-02-04T00:28:26;4.80;99.90
31074;DHT22;17730;53.552;9.940;2023-02-04T00:30:51;4.70;99.90
31074;DHT22;17730;53.552;9.940;2023-02-04T00:33:17;4.70;99.90
31074;DHT22;17730;53.552;9.940;2023-02-04T00:35:42;4.60;99.90
31074;DHT22;17730;53.552;9.940;2023-02-04T00:38:08;4.60;99.90
31074;DHT22;17730;53.552;9.940;2023-02-04T00:40:33;4.60;99.90
31074;DHT22;17730;53.552;9.940;2023-02-04T00:42:59;4.60;99.90
31074;DHT22;17730;53.552;9.940;2023-02-04T00:45:24;4.50;99.90
31074;DHT22;17730;53.552;9.940;2023-02-04T00:47:50;4.50;99.90
31074;DHT22;17730;53.552;9.940;2023-02-04T00:50:15;4.40;99.90
31074;DHT22;17730;53.552;9.940;2023-02-04T00:52:41;4.30;99.90
31074;DHT22;17730;53.552;9.940;2023-02-04T00:55:07;4.30;99.90
31074;DHT22;17730;53.552;9.940;2023-02-04T00:57:34;4.20;1.00
31074;DHT22;17730;53.552;9.940;2023-02-04T01:00:00;4.20;1.00
31074;DHT22;17730;53.552;9.940;2023-02-04T01:02:25;4.10;1.00
31074;DHT22;17730;53.552;9.940;2023-02-04T01:04:51;4.10;1.00
31074;DHT22;17730;53.552;9.940;2023-02-04T01:07:16;4.00;1.00
31074;DHT22;17730;53.552;9.940;2023-02-04T01:09:42;4.00;1.00
31074;DHT22;17730;53.552;9.940;2023-02-04T01:12:07;4.00;1.00
31074;DHT22;17730;53.552;9.940;2023-02-04T01:14:33;3.90;1.00
31074;DHT22;17730;53.552;9.940;2023-02-04T01:16:58;3.90;1.00
31074;DHT22;17730;53.552;9.940;2023-02-04T01:19:24;3.90;1.00
31074;DHT22;17730;53.552;9.940;2023-02-04T01:21:49;3.80;1.00
31074;DHT22;17730;53.552;9.940;2023-02-04T01:24:15;3.70;1.00
31074;DHT22;17730;53.552;9.940;2023-02-04T01:26:40;3.70;1.00
31074;DHT22;17730;53.552;9.940;2023-02-04T01:29:06;3.70;1.00
31074;DHT22;17730;53.552;9.940;2023-02-04T01:31:31;3.70;1.00
31074;DHT22;17730;53.552;9.940;2023-02-04T01:33:58;3.70;1.00
31074;DHT22;17730;53.552;9.940;2023-02-04T01:36:24;3.70;1.00
31074;DHT22;17730;53.552;9.940;2023-02-04T01:38:50;3.70;1.00
31074;DHT22;17730;53.552;9.940;2023-02-04T01:41:16;3.80;1.00
31074;DHT22;17730;53.552;9.940;2023-02-04T01:43:41;3.80;1.00
31074;DHT22;17730;53.552;9.940;2023-02-04T01:46:07;3.70;1.00
31074;DHT22;17730;53.552;9.940;2023-02-04T01:48:32;3.80;1.00
31074;DHT22;17730;53.552;9.940;2023-02-04T01:51:02;3.80;1.00
31074;DHT22;17730;53.552;9.940;2023-02-04T01:53:28;3.80;1.00
31074;DHT22;17730;53.552;9.940;2023-02-04T01:55:54;3.90;1.00
31074;DHT22;17730;53.552;9.940;2023-02-04T01:58:19;3.90;1.00
31074;DHT22;17730;53.552;9.940;2023-02-04T02:00:45;3.90;1.00
31074;DHT22;17730;53.552;9.940;2023-02-04T02:03:10;4.00;1.00
31074;DHT22;17730;53.552;9.940;2023-02-04T02:05:47;4.00;1.00
31074;DHT22;17730;53.552;9.940;2023-02-04T02:08:13;4.00;1.00
31074;DHT22;17730;53.552;9.940;2023-02-04T02:10:39;4.00;1.00
31074;DHT22;17730;53.552;9.940;2023-02-04T02:13:06;4.10;1.00
31074;DHT22;17730;53.552;9.940;2023-02-04T02:15:32;4.10;1.00
31074;DHT22;17730;53.552;9.940;2023-02-04T02:17:58;4.10;1.00
31074;DHT22;17730;53.552;9.940;2023-02-04T02:20:24;4.10;1.00
31074;DHT22;17730;53.552;9.940;2023-02-04T02:25:15;4.10;1.00
31074;DHT22;17730;53.552;9.940;2023-02-04T02:27:41;4.10;1.00
31074;DHT22;17730;53.552;9.940;2023-02-04T02:30:07;4.10;1.00
31074;DHT22;17730;53.552;9.940;2023-02-04T02:32:33;4.10;1.00
31074;DHT22;17730;53.552;9.940;2023-02-04T02:34:59;4.20;1.00
31074;DHT22;17730;53.552;9.940;2023-02-04T02:37:25;4.20;1.00
31074;DHT22;17730;53.552;9.940;2023-02-04T02:39:51;4.20;1.00
31074;DHT22;17730;53.552;9.940;2023-02-04T02:42:16;4.20;1.00
31074;DHT22;17730;53.552;9.940;2023-02-04T02:44:43;4.20;1.00
31074;DHT22;17730;53.552;9.940;2023-02-04T02:47:15;4.30;1.00
31074;DHT22;17730;53.552;9.940;2023-02-04T02:49:42;4.40;1.00
31074;DHT22;17730;53.552;9.940;2023-02-04T02:52:09;4.40;1.00
31074;DHT22;17730;53.552;9.940;2023-02-04T02:54:35;4.30;1.00
31074;DHT22;17730;53.552;9.940;2023-02-04T02:57:00;4.30;1.00
31074;DHT22;17730;53.552;9.940;2023-02-04T02:59:26;4.20;1.00
31074;DHT22;17730;53.552;9.940;2023-02-04T03:02:00;4.20;1.00
31074;DHT22;17730;53.552;9.940;2023-02-04T03:04:29;4.00;1.00
31074;DHT22;17730;53.552;9.940;2023-02-04T03:06:55;4.00;1.00
31074;DHT22;17730;53.552;9.940;2023-02-04T03:09:21;3.80;1.00
31074;DHT22;17730;53.552;9.940;2023-02-04T03:11:47;3.80;1.00
31074;DHT22;17730;53.552;9.940;2023-02-04T03:14:12;3.80;1.00
31074;DHT22;17730;53.552;9.940;2023-02-04T03:16:38;3.80;1.00
31074;DHT22;17730;53.552;9.940;2023-02-04T03:19:04;3.70;1.00
31074;DHT22;17730;53.552;9.940;2023-02-04T03:21:30;3.60;1.00
31074;DHT22;17730;53.552;9.940;2023-02-04T03:23:56;3.60;1.00
31074;DHT22;17730;53.552;9.940;2023-02-04T03:26:23;3.50;1.00
31074;DHT22;17730;53.552;9.940;2023-02-04T03:28:49;3.50;1.00
31074;DHT22;17730;53.552;9.940;2023-02-04T03:31:15;3.40;1.00
31074;DHT22;17730;53.552;9.940;2023-02-04T03:33:40;3.30;1.00
31074;DHT22;17730;53.552;9.940;2023-02-04T03:36:07;3.20;1.00
31074;DHT22;17730;53.552;9.940;2023-02-04T03:38:32;3.20;1.00
31074;DHT22;17730;53.552;9.940;2023-02-04T03:40:58;3.20;1.00
31074;DHT22;17730;53.552;9.940;2023-02-04T03:43:24;3.30;1.00
31074;DHT22;17730;53.552;9.940;2023-02-04T03:45:49;3.30;1.00
31074;DHT22;17730;53.552;9.940;2023-02-04T03:48:15;3.30;1.00
31074;DHT22;17730;53.552;9.940;2023-02-04T03:50:41;3.20;1.00
31074;DHT22;17730;53.552;9.940;2023-02-04T03:53:07;3.10;1.00
31074;DHT22;17730;53.552;9.940;2023-02-04T03:55:32;3.10;1.00
31074;DHT22;17730;53.552;9.940;2023-02-04T03:57:58;3.10;1.00
31074;DHT22;17730;53.552;9.940;2023-02-04T04:00:24;3.10;1.00
31074;DHT22;17730;53.552;9.940;2023-02-04T04:02:49;3.10;1.00
31074;DHT22;17730;53.552;9.940;2023-02-04T04:05:15;3.10;1.00
31074;DHT22;17730;53.552;9.940;2023-02-04T04:07:41;3.10;1.60
31074;DHT22;17730;53.552;9.940;2023-02-04T04:10:07;3.20;3.60
31074;DHT22;17730;53.552;9.940;2023-02-04T04:12:32;3.20;1.60
31074;DHT22;17730;53.552;9.940;2023-02-04T04:14:58;3.20;1.00
31074;DHT22;17730;53.552;9.940;2023-02-04T04:17:23;3.30;2.60
31074;DHT22;17730;53.552;9.940;2023-02-04T04:19:49;3.30;1.00
31074;DHT22;17730;53.552;9.940;2023-02-04T04:22:14;3.40;1.00
31074;DHT22;17730;53.552;9.940;2023-02-04T04:24:40;3.40;1.00
31074;DHT22;17730;53.552;9.940;2023-02-04T04:27:06;3.40;1.00
31074;DHT22;17730;53.552;9.940;2023-02-04T04:29:31;3.40;1.00
31074;DHT22;17730;53.552;9.940;2023-02-04T04:31:56;3.50;1.00
31074;DHT22;17730;53.552;9.940;2023-02-04T04:34:22;3.50;1.00
31074;DHT22;17730;53.552;9.940;2023-02-04T04:36:47;3.50;1.00
31074;DHT22;17730;53.552;9.940;2023-02-04T04:39:13;3.50;1.00
31074;DHT22;17730;53.552;9.940;2023-02-04T04:41:38;3.50;1.00
31074;DHT22;17730;53.552;9.940;2023-02-04T04:44:04;3.60;1.00
31074;DHT22;17730;53.552;9.940;2023-02-04T04:46:30;3.60;1.00
31074;DHT22;17730;53.552;9.940;2023-02-04T04:48:55;3.70;1.00
31074;DHT22;17730;53.552;9.940;2023-02-04T04:51:21;3.70;1.00
31074;DHT22;17730;53.552;9.940;2023-02-04T04:53:46;3.80;1.00
31074;DHT22;17730;53.552;9.940;2023-02-04T04:56:12;3.90;1.00
31074;DHT22;17730;53.552;9.940;2023-02-04T04:58:38;4.00;1.00
31074;DHT22;17730;53.552;9.940;2023-02-04T05:01:03;4.00;1.00
31074;DHT22;17730;53.552;9.940;2023-02-04T05:03:29;4.00;1.00
31074;DHT22;17730;53.552;9.940;2023-02-04T05:05:54;4.00;1.00
31074;DHT22;17730;53.552;9.940;2023-02-04T05:08:20;4.00;1.00
31074;DHT22;17730;53.552;9.940;2023-02-04T05:10:46;4.00;1.00
31074;DHT22;17730;53.552;9.940;2023-02-04T05:13:11;4.00;1.00
31074;DHT22;17730;53.552;9.940;2023-02-04T05:15:37;4.00;1.00
31074;DHT22;17730;53.552;9.940;2023-02-04T05:18:03;4.00;1.00
31074;DHT22;17730;53.552;9.940;2023-02-04T05:20:29;3.90;1.00
31074;DHT22;17730;53.552;9.940;2023-02-04T05:22:55;3.90;1.00
31074;DHT22;17730;53.552;9.940;2023-02-04T05:25:22;3.90;1.00
31074;DHT22;17730;53.552;9.940;2023-02-04T05:27:47;3.90;1.00
31074;DHT22;17730;53.552;9.940;2023-02-04T05:30:14;3.80;1.00
31074;DHT22;17730;53.552;9.940;2023-02-04T05:32:40;3.70;1.00
31074;DHT22;17730;53.552;9.940;2023-02-04T05:35:06;3.60;1.00
31074;DHT22;17730;53.552;9.940;2023-02-04T05:37:32;3.40;1.00
31074;DHT22;17730;53.552;9.940;2023-02-04T05:39:57;3.40;1.00
31074;DHT22;17730;53.552;9.940;2023-02-04T05:42:23;3.30;1.00
31074;DHT22;17730;53.552;9.940;2023-02-04T05:44:49;3.20;1.00
31074;DHT22;17730;53.552;9.940;2023-02-04T05:47:14;3.10;1.00
31074;DHT22;17730;53.552;9.940;2023-02-04T05:49:40;3.10;1.00
31074;DHT22;17730;53.552;9.940;2023-02-04T05:52:06;3.00;1.00
31074;DHT22;17730;53.552;9.940;2023-02-04T05:54:32;3.00;1.00
31074;DHT22;17730;53.552;9.940;2023-02-04T05:56:57;3.00;1.00
31074;DHT22;17730;53.552;9.940;2023-02-04T05:59:23;2.90;1.00
31074;DHT22;17730;53.552;9.940;2023-02-04T06:01:49;2.90;1.00
31074;DHT22;17730;53.552;9.940;2023-02-04T06:04:14;2.80;1.00
31074;DHT22;17730;53.552;9.940;2023-02-04T06:06:41;2.80;1.00
31074;DHT22;17730;53.552;9.940;2023-02-04T06:09:07;2.80;1.00
31074;DHT22;17730;53.552;9.940;2023-02-04T06:11:32;2.70;1.00
31074;DHT22;17730;53.552;9.940;2023-02-04T06:13:58;2.70;1.00
31074;DHT22;17730;53.552;9.940;2023-02-04T06:16:23;2.70;1.00
31074;DHT22;17730;53.552;9.940;2023-02-04T06:18:49;2.70;1.00
31074;DHT22;17730;53.552;9.940;2023-02-04T06:21:14;2.70;1.00
31074;DHT22;17730;53.552;9.940;2023-02-04T06:23:40;2.70;1.00
31074;DHT22;17730;53.552;9.940;2023-02-04T06:26:05;2.70;1.00
31074;DHT22;17730;53.552;9.940;2023-02-04T06:28:31;2.70;1.00
31074;DHT22;17730;53.552;9.940;2023-02-04T06:30:57;2.70;1.00
31074;DHT22;17730;53.552;9.940;2023-02-04T06:33:22;2.70;1.00
31074;DHT22;17730;53.552;9.940;2023-02-04T06:35:49;2.70;1.00
31074;DHT22;17730;53.552;9.940;2023-02-04T06:38:14;2.70;1.00
31074;DHT22;17730;53.552;9.940;2023-02-04T06:40:40;2.70;1.00
31074;DHT22;17730;53.552;9.940;2023-02-04T06:43:06;2.70;1.00
31074;DHT22;17730;53.552;9.940;2023-02-04T06:45:32;2.70;1.00
31074;DHT22;17730;53.552;9.940;2023-02-04T06:47:57;2.80;1.00
31074;DHT22;17730;53.552;9.940;2023-02-04T06:50:23;2.80;1.00
31074;DHT22;17730;53.552;9.940;2023-02-04T06:52:48;2.80;1.00
31074;DHT22;17730;53.552;9.940;2023-02-04T06:55:15;2.80;1.00
31074;DHT22;17730;53.552;9.940;2023-02-04T06:57:41;2.80;1.00
31074;DHT22;17730;53.552;9.940;2023-02-04T07:00:08;2.80;1.00
31074;DHT22;17730;53.552;9.940;2023-02-04T07:02:34;2.80;1.00
31074;DHT22;17730;53.552;9.940;2023-02-04T07:05:01;2.80;1.00
31074;DHT22;17730;53.552;9.940;2023-02-04T07:07:26;2.90;1.00
31074;DHT22;17730;53.552;9.940;2023-02-04T07:09:52;2.90;1.00
31074;DHT22;17730;53.552;9.940;2023-02-04T07:12:17;2.90;1.00
31074;DHT22;17730;53.552;9.940;2023-02-04T07:14:43;2.90;1.00
31074;DHT22;17730;53.552;9.940;2023-02-04T07:17:08;2.90;1.00
31074;DHT22;17730;53.552;9.940;2023-02-04T07:19:34;2.90;1.00
31074;DHT22;17730;53.552;9.940;2023-02-04T07:22:01;2.90;1.00
31074;DHT22;17730;53.552;9.940;2023-02-04T07:24:27;2.90;1.00
31074;DHT22;17730;53.552;9.940;2023-02-04T07:26:52;2.90;1.00
31074;DHT22;17730;53.552;9.940;2023-02-04T07:29:18;3.00;1.00
31074;DHT22;17730;53.552;9.940;2023-02-04T07:31:44;3.00;1.00
31074;DHT22;17730;53.552;9.940;2023-02-04T07:34:13;3.00;1.00
31074;DHT22;17730;53.552;9.940;2023-02-04T07:36:39;3.10;1.00
31074;DHT22;17730;53.552;9.940;2023-02-04T07:39:05;3.10;1.00
31074;DHT22;17730;53.552;9.940;2023-02-04T07:41:31;3.20;1.00
31074;DHT22;17730;53.552;9.940;2023-02-04T07:43:56;3.20;1.00
31074;DHT22;17730;53.552;9.940;2023-02-04T07:46:22;3.30;1.00
31074;DHT22;17730;53.552;9.940;2023-02-04T07:48:47;3.30;1.00
31074;DHT22;17730;53.552;9.940;2023-02-04T07:51:13;3.30;1.00
31074;DHT22;17730;53.552;9.940;2023-02-04T07:53:38;3.40;1.00
31074;DHT22;17730;53.552;9.940;2023-02-04T07:56:04;3.40;1.00
31074;DHT22;17730;53.552;9.940;2023-02-04T07:58:29;3.50;1.00
31074;DHT22;17730;53.552;9.940;2023-02-04T08:00:55;3.50;1.00
31074;DHT22;17730;53.552;9.940;2023-02-04T08:03:21;3.60;1.00
31074;DHT22;17730;53.552;9.940;2023-02-04T08:05:46;3.70;1.00
31074;DHT22;17730;53.552;9.940;2023-02-04T08:08:12;3.70;1.00
31074;DHT22;17730;53.552;9.940;2023-02-04T08:10:37;3.80;1.00
31074;DHT22;17730;53.552;9.940;2023-02-04T08:13:03;3.80;1.00
31074;DHT22;17730;53.552;9.940;2023-02-04T08:15:28;3.80;1.00
31074;DHT22;17730;53.552;9.940;2023-02-04T08:17:54;3.90;1.00
31074;DHT22;17730;53.552;9.940;2023-02-04T08:20:20;4.10;99.90
31074;DHT22;17730;53.552;9.940;2023-02-04T08:22:45;4.20;99.90
31074;DHT22;17730;53.552;9.940;2023-02-04T08:25:12;4.30;99.90
31074;DHT22;17730;53.552;9.940;2023-02-04T08:27:38;4.30;99.90
31074;DHT22;17730;53.552;9.940;2023-02-04T08:30:04;4.20;99.90
31074;DHT22;17730;53.552;9.940;2023-02-04T08:32:30;4.30;99.90
31074;DHT22;17730;53.552;9.940;2023-02-04T08:34:57;4.40;99.90
31074;DHT22;17730;53.552;9.940;2023-02-04T08:37:22;4.40;99.90
31074;DHT22;17730;53.552;9.940;2023-02-04T08:39:48;4.40;99.90
31074;DHT22;17730;53.552;9.940;2023-02-04T08:42:14;4.50;99.90
31074;DHT22;17730;53.552;9.940;2023-02-04T08:44:40;4.60;99.90
31074;DHT22;17730;53.552;9.940;2023-02-04T08:47:06;4.50;99.90
31074;DHT22;17730;53.552;9.940;2023-02-04T08:49:32;4.50;99.90
31074;DHT22;17730;53.552;9.940;2023-02-04T08:51:58;4.50;99.90
31074;DHT22;17730;53.552;9.940;2023-02-04T08:54:23;4.40;99.90
31074;DHT22;17730;53.552;9.940;2023-02-04T08:56:50;4.50;99.90
31074;DHT22;17730;53.552;9.940;2023-02-04T08:59:16;4.60;99.90
31074;DHT22;17730;53.552;9.940;2023-02-04T09:01:41;4.70;99.90
31074;DHT22;17730;53.552;9.940;2023-02-04T09:04:07;4.90;99.90
31074;DHT22;17730;53.552;9.940;2023-02-04T09:06:33;5.10;99.90
31074;DHT22;17730;53.552;9.940;2023-02-04T09:08:58;5.20;99.90
31074;DHT22;17730;53.552;9.940;2023-02-04T09:11:24;5.30;99.90
31074;DHT22;17730;53.552;9.940;2023-02-04T09:13:50;5.40;99.90
31074;DHT22;17730;53.552;9.940;2023-02-04T09:16:15;5.50;99.90
31074;DHT22;17730;53.552;9.940;2023-02-04T09:18:42;5.50;99.90
31074;DHT22;17730;53.552;9.940;2023-02-04T09:21:08;5.50;99.90
31074;DHT22;17730;53.552;9.940;2023-02-04T09:23:34;5.40;99.90
31074;DHT22;17730;53.552;9.940;2023-02-04T09:25:59;5.50;99.90
31074;DHT22;17730;53.552;9.940;2023-02-04T09:28:26;5.40;99.90
31074;DHT22;17730;53.552;9.940;2023-02-04T09:30:51;5.30;99.90
31074;DHT22;17730;53.552;9.940;2023-02-04T09:33:17;5.10;99.90
31074;DHT22;17730;53.552;9.940;2023-02-04T09:35:43;5.00;99.90
31074;DHT22;17730;53.552;9.940;2023-02-04T09:38:09;4.90;99.90
31074;DHT22;17730;53.552;9.940;2023-02-04T09:40:40;4.90;99.90
31074;DHT22;17730;53.552;9.940;2023-02-04T09:43:10;5.10;99.90
31074;DHT22;17730;53.552;9.940;2023-02-04T09:45:36;5.20;99.90
31074;DHT22;17730;53.552;9.940;2023-02-04T09:48:04;5.40;99.90
31074;DHT22;17730;53.552;9.940;2023-02-04T09:50:31;5.50;99.90
31074;DHT22;17730;53.552;9.940;2023-02-04T09:53:00;5.50;99.90
31074;DHT22;17730;53.552;9.940;2023-02-04T09:55:33;5.70;99.90
31074;DHT22;17730;53.552;9.940;2023-02-04T09:57:59;5.90;99.90
31074;DHT22;17730;53.552;9.940;2023-02-04T10:00:27;6.10;99.90
31074;DHT22;17730;53.552;9.940;2023-02-04T10:02:53;6.20;99.90
31074;DHT22;17730;53.552;9.940;2023-02-04T10:05:33;6.00;99.90
31074;DHT22;17730;53.552;9.940;2023-02-04T10:08:03;6.00;99.90
31074;DHT22;17730;53.552;9.940;2023-02-04T10:10:29;5.80;99.90
31074;DHT22;17730;53.552;9.940;2023-02-04T10:13:00;5.90;99.90
31074;DHT22;17730;53.552;9.940;2023-02-04T10:15:27;5.90;99.90
31074;DHT22;17730;53.552;9.940;2023-02-04T10:18:04;5.90;99.90
31074;DHT22;17730;53.552;9.940;2023-02-04T10:20:31;6.00;99.90
31074;DHT22;17730;53.552;9.940;2023-02-04T10:22:57;6.10;99.90
31074;DHT22;17730;53.552;9.940;2023-02-04T10:25:24;6.20;99.90
31074;DHT22;17730;53.552;9.940;2023-02-04T10:27:55;6.40;99.90
31074;DHT22;17730;53.552;9.940;2023-02-04T10:30:28;6.40;99.90
31074;DHT22;17730;53.552;9.940;2023-02-04T10:32:58;6.70;99.90
31074;DHT22;17730;53.552;9.940;2023-02-04T10:35:25;7.00;99.90
31074;DHT22;17730;53.552;9.940;2023-02-04T10:38:05;7.10;99.90
31074;DHT22;17730;53.552;9.940;2023-02-04T10:40:35;7.40;99.90
31074;DHT22;17730;53.552;9.940;2023-02-04T10:43:15;7.60;99.90
31074;DHT22;17730;53.552;9.940;2023-02-04T10:45:45;7.80;99.90
31074;DHT22;17730;53.552;9.940;2023-02-04T10:48:18;7.80;99.90
31074;DHT22;17730;53.552;9.940;2023-02-04T10:50:45;7.70;99.90
31074;DHT22;17730;53.552;9.940;2023-02-04T10:53:18;7.30;99.90
31074;DHT22;17730;53.552;9.940;2023-02-04T10:56:04;6.90;99.90
31074;DHT22;17730;53.552;9.940;2023-02-04T10:58:34;7.10;99.90
31074;DHT22;17730;53.552;9.940;2023-02-04T11:01:00;7.30;99.90
31074;DHT22;17730;53.552;9.940;2023-02-04T11:03:27;7.50;99.90
31074;DHT22;17730;53.552;9.940;2023-02-04T11:05:57;7.60;99.90
31074;DHT22;17730;53.552;9.940;2023-02-04T11:08:24;7.70;99.90
31074;DHT22;17730;53.552;9.940;2023-02-04T11:11:04;7.70;99.90
31074;DHT22;17730;53.552;9.940;2023-02-04T11:16:29;8.10;99.90
31074;DHT22;17730;53.552;9.940;2023-02-04T11:19:11;8.30;99.90
31074;DHT22;17730;53.552;9.940;2023-02-04T11:26:35;8.70;99.90
31074;DHT22;17730;53.552;9.940;2023-02-04T11:39:21;8.70;99.90
31074;DHT22;17730;53.552;9.940;2023-02-04T11:41:48;8.60;99.90
31074;DHT22;17730;53.552;9.940;2023-02-04T11:44:15;8.50;99.90
31074;DHT22;17730;53.552;9.940;2023-02-04T11:46:42;8.50;99.90
31074;DHT22;17730;53.552;9.940;2023-02-04T11:49:18;8.70;99.90
31074;DHT22;17730;53.552;9.940;2023-02-04T11:51:44;9.20;99.90
31074;DHT22;17730;53.552;9.940;2023-02-04T11:54:12;9.50;99.90
31074;DHT22;17730;53.552;9.940;2023-02-04T11:56:38;9.60;91.70
31074;DHT22;17730;53.552;9.940;2023-02-04T11:59:04;9.60;84.50
31074;DHT22;17730;53.552;9.940;2023-02-04T12:01:32;9.50;76.10
31074;DHT22;17730;53.552;9.940;2023-02-04T12:04:00;9.50;73.30
31074;DHT22;17730;53.552;9.940;2023-02-04T12:06:30;9.50;64.70
31074;DHT22;17730;53.552;9.940;2023-02-04T12:11:51;9.60;35.90
31074;DHT22;17730;53.552;9.940;2023-02-04T12:14:18;9.40;19.00
31074;DHT22;17730;53.552;9.940;2023-02-04T12:16:49;9.20;25.90
31074;DHT22;17730;53.552;9.940;2023-02-04T12:19:18;9.00;37.50
31074;DHT22;17730;53.552;9.940;2023-02-04T12:21:44;8.80;59.30
31074;DHT22;17730;53.552;9.940;2023-02-04T12:24:09;8.80;79.40
31074;DHT22;17730;53.552;9.940;2023-02-04T12:26:35;8.80;78.70
31074;DHT22;17730;53.552;9.940;2023-02-04T12:29:01;8.80;79.80
31074;DHT22;17730;53.552;9.940;2023-02-04T12:31:31;8.80;86.40
31074;DHT22;17730;53.552;9.940;2023-02-04T12:33:58;8.90;75.70
31074;DHT22;17730;53.552;9.940;2023-02-04T12:36:24;9.00;38.60
31074;DHT22;17730;53.552;9.940;2023-02-04T12:38:52;9.10;41.20
31074;DHT22;17730;53.552;9.940;2023-02-04T12:41:18;9.10;34.10
31074;DHT22;17730;53.552;9.940;2023-02-04T12:43:44;9.40;57.30
31074;DHT22;17730;53.552;9.940;2023-02-04T12:46:10;9.60;22.00
31074;DHT22;17730;53.552;9.940;2023-02-04T12:48:36;9.60;1.00
31074;DHT22;17730;53.552;9.940;2023-02-04T12:51:05;9.40;1.00
31074;DHT22;17730;53.552;9.940;2023-02-04T12:53:31;9.30;2.70
31074;DHT22;17730;53.552;9.940;2023-02-04T12:55:57;9.30;1.00
31074;DHT22;17730;53.552;9.940;2023-02-04T12:58:22;9.20;1.00
31074;DHT22;17730;53.552;9.940;2023-02-04T13:00:48;9.10;2.80
31074;DHT22;17730;53.552;9.940;2023-02-04T13:03:14;9.10;11.70
31074;DHT22;17730;53.552;9.940;2023-02-04T13:05:41;9.30;14.60
31074;DHT22;17730;53.552;9.940;2023-02-04T13:08:06;9.30;1.00
31074;DHT22;17730;53.552;9.940;2023-02-04T13:10:32;9.30;1.00
31074;DHT22;17730;53.552;9.940;2023-02-04T13:12:58;9.20;1.00
31074;DHT22;17730;53.552;9.940;2023-02-04T13:15:24;9.00;10.40
31074;DHT22;17730;53.552;9.940;2023-02-04T13:17:50;8.90;15.50
31074;DHT22;17730;53.552;9.940;2023-02-04T13:20:16;8.90;22.00
31074;DHT22;17730;53.552;9.940;2023-02-04T13:22:42;9.00;32.50
31074;DHT22;17730;53.552;9.940;2023-02-04T13:25:08;9.10;33.30
31074;DHT22;17730;53.552;9.940;2023-02-04T13:27:36;9.30;2.70
31074;DHT22;17730;53.552;9.940;2023-02-04T13:30:03;9.40;1.00
31074;DHT22;17730;53.552;9.940;2023-02-04T13:32:29;9.40;4.10
31074;DHT22;17730;53.552;9.940;2023-02-04T13:34:54;9.40;1.00
31074;DHT22;17730;53.552;9.940;2023-02-04T13:37:20;9.40;1.00
31074;DHT22;17730;53.552;9.940;2023-02-04T13:39:45;9.50;1.00
31074;DHT22;17730;53.552;9.940;2023-02-04T13:42:11;9.50;1.00
31074;DHT22;17730;53.552;9.940;2023-02-04T13:44:37;9.50;1.00
31074;DHT22;17730;53.552;9.940;2023-02-04T13:47:02;9.40;1.00
31074;DHT22;17730;53.552;9.940;2023-02-04T13:49:28;9.20;1.00
31074;DHT22;17730;53.552;9.940;2023-02-04T13:51:54;9.00;1.00
31074;DHT22;17730;53.552;9.940;2023-02-04T13:54:19;8.80;1.00
31074;DHT22;17730;53.552;9.940;2023-02-04T13:56:45;8.70;15.70
31074;DHT22;17730;53.552;9.940;2023-02-04T13:59:11;8.60;19.80
31074;DHT22;17730;53.552;9.940;2023-02-04T14:01:36;8.50;11.50
31074;DHT22;17730;53.552;9.940;2023-02-04T14:04:03;8.40;4.20
31074;DHT22;17730;53.552;9.940;2023-02-04T14:06:29;8.20;6.20
31074;DHT22;17730;53.552;9.940;2023-02-04T14:08:59;8.10;19.20
31074;DHT22;17730;53.552;9.940;2023-02-04T14:11:25;8.00;19.90
31074;DHT22;17730;53.552;9.940;2023-02-04T14:13:51;7.90;17.60
31074;DHT22;17730;53.552;9.940;2023-02-04T14:16:16;7.80;19.00
31074;DHT22;17730;53.552;9.940;2023-02-04T14:18:42;7.70;34.90
31074;DHT22;17730;53.552;9.940;2023-02-04T14:21:08;7.70;55.70
31074;DHT22;17730;53.552;9.940;2023-02-04T14:23:33;7.70;68.20
31074;DHT22;17730;53.552;9.940;2023-02-04T14:25:59;7.70;64.30
31074;DHT22;17730;53.552;9.940;2023-02-04T14:28:25;7.60;76.80
31074;DHT22;17730;53.552;9.940;2023-02-04T14:30:50;7.60;85.50
31074;DHT22;17730;53.552;9.940;2023-02-04T14:33:16;7.50;92.10
31074;DHT22;17730;53.552;9.940;2023-02-04T14:35:42;7.40;97.40
31074;DHT22;17730;53.552;9.940;2023-02-04T14:38:08;7.40;97.00
31074;DHT22;17730;53.552;9.940;2023-02-04T14:40:36;7.40;95.00
31074;DHT22;17730;53.552;9.940;2023-02-04T14:43:01;7.30;97.10
31074;DHT22;17730;53.552;9.940;2023-02-04T14:45:27;7.20;99.90
31074;DHT22;17730;53.552;9.940;2023-02-04T14:47:53;7.10;99.90
31074;DHT22;17730;53.552;9.940;2023-02-04T14:50:21;7.10;99.90
31074;DHT22;17730;53.552;9.940;2023-02-04T14:52:52;7.00;99.90
31074;DHT22;17730;53.552;9.940;2023-02-04T14:55:17;6.90;99.90
31074;DHT22;17730;53.552;9.940;2023-02-04T14:57:43;6.90;99.90
31074;DHT22;17730;53.552;9.940;2023-02-04T15:00:09;6.90;99.90
31074;DHT22;17730;53.552;9.940;2023-02-04T15:02:35;6.80;99.90
31074;DHT22;17730;53.552;9.940;2023-02-04T15:05:01;6.80;99.90
31074;DHT22;17730;53.552;9.940;2023-02-04T15:07:26;6.80;99.90
31074;DHT22;17730;53.552;9.940;2023-02-04T15:09:52;6.80;99.90
31074;DHT22;17730;53.552;9.940;2023-02-04T15:12:18;6.80;99.90
31074;DHT22;17730;53.552;9.940;2023-02-04T15:14:43;6.80;99.90
31074;DHT22;17730;53.552;9.940;2023-02-04T15:17:09;6.80;99.90
31074;DHT22;17730;53.552;9.940;2023-02-04T15:19:35;6.70;99.90
31074;DHT22;17730;53.552;9.940;2023-02-04T15:22:00;6.70;99.90
31074;DHT22;17730;53.552;9.940;2023-02-04T15:24:26;6.70;99.90
31074;DHT22;17730;53.552;9.940;2023-02-04T15:26:53;6.70;99.90
31074;DHT22;17730;53.552;9.940;2023-02-04T15:29:19;6.60;99.90
31074;DHT22;17730;53.552;9.940;2023-02-04T15:31:45;6.60;99.90
31074;DHT22;17730;53.552;9.940;2023-02-04T15:34:10;6.60;99.90
31074;DHT22;17730;53.552;9.940;2023-02-04T15:36:36;6.50;99.90
31074;DHT22;17730;53.552;9.940;2023-02-04T15:39:02;6.50;99.90
31074;DHT22;17730;53.552;9.940;2023-02-04T15:41:28;6.50;99.90
31074;DHT22;17730;53.552;9.940;2023-02-04T15:43:53;6.40;99.90
31074;DHT22;17730;53.552;9.940;2023-02-04T15:46:19;6.40;99.90
31074;DHT22;17730;53.552;9.940;2023-02-04T15:48:45;6.40;99.90
31074;DHT22;17730;53.552;9.940;2023-02-04T15:51:11;6.30;99.90
31074;DHT22;17730;53.552;9.940;2023-02-04T15:53:36;6.30;99.90
31074;DHT22;17730;53.552;9.940;2023-02-04T15:56:03;6.20;99.90
31074;DHT22;17730;53.552;9.940;2023-02-04T15:58:29;6.20;99.90
31074;DHT22;17730;53.552;9.940;2023-02-04T16:00:55;6.10;99.90
31074;DHT22;17730;53.552;9.940;2023-02-04T16:03:22;6.00;99.90
31074;DHT22;17730;53.552;9.940;2023-02-04T16:05:47;6.00;99.90
31074;DHT22;17730;53.552;9.940;2023-02-04T16:08:13;5.90;99.90
31074;DHT22;17730;53.552;9.940;2023-02-04T16:10:39;5.80;99.90
31074;DHT22;17730;53.552;9.940;2023-02-04T16:13:04;5.70;99.90